Pagrindinis puslapis
METAR-TAF:

METAR-TAF

Oro uostai :

Port Heiden, Aliaska, Jungtinės Amerikos Valstijos

platuma: 56-57N, ilguma: 158-38W, Aukštis: 29 m

Dabartinis oras

Ataskaita buvo paskelbta 9 minutes, ne 00:46 UTC
Vėjas 19 kt iš Vakarų/Šiaurės Vakarų
Temperatūra -1°C
Drėgmė 93%
Slėgis 1005 hPa
Matomumas: 16.1 km
Apsiniaukę ne aukštis 1500 ft
nežinomas

METAR: PAPH 290046Z AUTO 29019KT 10SM UP OVC015 M01/M02 A2969 RMK AO2 PK WND 29026/0033 UPE05B38SNB05E38 P0000 FZRANO

Laikas: 16:55 (00:55 UTC)


TAF: trūkstamas

Orai ataskaitas ir orų prognozės (METAR, TAF).

turimą stotys yra geltonos ir raudonos taškus žemėlapyje.

Perkelti pele per norėdami pamatyti stoties vardą.

Tada spustelėkite, norėdami matyti oro stebėjimo ir prognozės.

Norėdami pakeisti žemėlapį: spustelėkite ant žalios mygtukų su juodo kryžiaus žemyn,; žalią mygtuką su brūkšneliu, jei norite nutolinti; arba žalių rodyklių gretimoms žemėlapius.


METAR-TAF: